createdAt,value
2022-10-21T00:01:11.895Z,100.00
2022-10-21T00:03:38.983Z,100.00
2022-10-21T00:06:06.280Z,100.00
2022-10-21T00:08:32.977Z,100.00
2022-10-21T00:11:01.838Z,100.00
2022-10-21T00:13:30.084Z,100.00
2022-10-21T00:16:09.861Z,100.00
2022-10-21T00:18:38.221Z,100.00
2022-10-21T00:21:05.549Z,100.00
2022-10-21T00:23:31.976Z,100.00
2022-10-21T00:25:59.087Z,100.00
2022-10-21T00:28:26.853Z,100.00
2022-10-21T00:30:53.461Z,100.00
2022-10-21T00:33:20.022Z,100.00
2022-10-21T00:35:58.949Z,100.00
2022-10-21T00:38:25.922Z,100.00
2022-10-21T00:40:52.331Z,100.00
2022-10-21T00:43:18.913Z,100.00
2022-10-21T00:45:47.713Z,100.00
2022-10-21T00:48:28.755Z,100.00
2022-10-21T00:51:00.756Z,100.00
2022-10-21T00:53:28.311Z,100.00
2022-10-21T00:55:59.919Z,100.00
2022-10-21T00:58:30.698Z,100.00
2022-10-21T01:00:59.090Z,100.00
2022-10-21T01:03:27.858Z,100.00
2022-10-21T01:05:56.345Z,100.00
2022-10-21T01:08:23.852Z,100.00
2022-10-21T01:10:50.870Z,100.00
2022-10-21T01:13:17.195Z,100.00
2022-10-21T01:15:55.341Z,100.00
2022-10-21T01:18:39.254Z,100.00
2022-10-21T01:21:22.566Z,100.00
2022-10-21T01:24:37.023Z,100.00
2022-10-21T01:27:20.927Z,100.00
2022-10-21T01:30:26.795Z,100.00
2022-10-21T01:33:14.804Z,100.00
2022-10-21T01:36:15.880Z,100.00
2022-10-21T01:39:12.506Z,100.00
2022-10-21T01:42:17.263Z,100.00
2022-10-21T01:44:52.903Z,100.00
2022-10-21T01:47:24.421Z,100.00
2022-10-21T01:49:58.079Z,100.00
2022-10-21T01:52:24.623Z,100.00
2022-10-21T01:54:58.022Z,100.00
2022-10-21T01:57:31.033Z,100.00
2022-10-21T01:59:59.950Z,100.00
2022-10-21T02:02:32.919Z,100.00
2022-10-21T02:05:03.950Z,100.00
2022-10-21T02:07:30.491Z,100.00
2022-10-21T02:09:56.886Z,100.00
2022-10-21T02:12:26.048Z,100.00
2022-10-21T02:14:53.294Z,100.00
2022-10-21T02:17:22.218Z,100.00
2022-10-21T02:19:48.796Z,100.00
2022-10-21T02:22:21.359Z,100.00
2022-10-21T02:24:59.858Z,100.00
2022-10-21T02:27:26.597Z,100.00
2022-10-21T02:29:57.275Z,100.00
2022-10-21T02:32:38.970Z,100.00
2022-10-21T02:35:18.251Z,100.00
2022-10-21T02:37:55.800Z,100.00
2022-10-21T02:40:39.151Z,100.00
2022-10-21T02:43:10.368Z,100.00
2022-10-21T02:45:38.505Z,100.00
2022-10-21T02:48:05.295Z,100.00
2022-10-21T02:50:32.355Z,100.00
2022-10-21T02:52:58.786Z,100.00
2022-10-21T02:55:25.282Z,100.00
2022-10-21T02:57:51.702Z,100.00
2022-10-21T03:00:18.113Z,100.00
2022-10-21T03:02:44.523Z,100.00
2022-10-21T03:05:12.925Z,100.00
2022-10-21T03:07:40.567Z,100.00
2022-10-21T03:10:07.764Z,100.00
2022-10-21T03:12:34.228Z,100.00
2022-10-21T03:15:00.620Z,100.00
2022-10-21T03:17:27.028Z,100.00
2022-10-21T03:19:53.454Z,100.00
2022-10-21T03:22:19.843Z,100.00
2022-10-21T03:24:46.230Z,100.00
2022-10-21T03:27:12.675Z,100.00
2022-10-21T03:29:39.083Z,100.00
2022-10-21T03:32:05.751Z,100.00
2022-10-21T03:34:32.195Z,100.00
2022-10-21T03:36:58.589Z,100.00
2022-10-21T03:39:25.014Z,100.00
2022-10-21T03:41:51.442Z,100.00
2022-10-21T03:44:17.848Z,100.00
2022-10-21T03:46:44.304Z,100.00
2022-10-21T03:49:18.360Z,99.87
2022-10-21T03:51:47.489Z,99.38
2022-10-21T03:54:13.912Z,99.43
2022-10-21T03:56:40.336Z,99.16
2022-10-21T03:59:06.802Z,98.71
2022-10-21T04:01:33.281Z,98.87
2022-10-21T04:03:59.763Z,98.44
2022-10-21T04:06:26.247Z,98.34
2022-10-21T04:08:52.787Z,98.06
2022-10-21T04:11:19.320Z,98.02
2022-10-21T04:13:45.799Z,97.91
2022-10-21T04:16:15.418Z,97.94
2022-10-21T04:18:42.048Z,97.85
2022-10-21T04:21:08.856Z,97.85
2022-10-21T04:23:35.691Z,97.71
2022-10-21T04:26:02.150Z,97.62
2022-10-21T04:28:28.815Z,97.16
2022-10-21T04:30:55.428Z,96.96
2022-10-21T04:33:22.061Z,96.88
2022-10-21T04:35:48.508Z,96.87
2022-10-21T04:38:15.055Z,96.88
2022-10-21T04:40:41.651Z,97.13
2022-10-21T04:43:08.052Z,97.27
2022-10-21T04:45:34.464Z,97.60
2022-10-21T04:48:00.898Z,96.91
2022-10-21T04:50:27.300Z,96.96
2022-10-21T04:52:53.722Z,97.04
2022-10-21T04:55:20.136Z,97.02
2022-10-21T04:57:46.595Z,96.95
2022-10-21T05:00:13.443Z,96.93
2022-10-21T05:02:40.100Z,96.93
2022-10-21T05:05:07.163Z,96.83
2022-10-21T05:07:33.574Z,96.75
2022-10-21T05:09:59.968Z,96.78
2022-10-21T05:12:26.403Z,96.49
2022-10-21T05:14:52.869Z,96.23
2022-10-21T05:17:19.272Z,96.15
2022-10-21T05:19:45.695Z,95.58
2022-10-21T05:22:12.723Z,95.35
2022-10-21T05:24:39.147Z,95.61
2022-10-21T05:27:05.591Z,95.69
2022-10-21T05:29:32.049Z,95.23
2022-10-21T05:31:58.485Z,95.44
2022-10-21T05:34:24.922Z,95.77
2022-10-21T05:36:51.306Z,96.02
2022-10-21T05:39:17.735Z,96.09
2022-10-21T05:41:47.038Z,96.23
2022-10-21T05:44:14.722Z,96.20
2022-10-21T05:46:41.170Z,96.06
2022-10-21T05:49:07.748Z,96.08
2022-10-21T05:51:34.155Z,96.01
2022-10-21T05:54:02.836Z,95.61
2022-10-21T05:56:29.387Z,95.55
2022-10-21T05:58:55.796Z,95.64
2022-10-21T06:01:22.531Z,95.47
2022-10-21T06:03:49.061Z,95.41
2022-10-21T06:06:15.534Z,95.61
2022-10-21T06:08:42.031Z,95.42
2022-10-21T06:11:13.686Z,95.42
2022-10-21T06:13:40.999Z,95.64
2022-10-21T06:16:08.593Z,95.50
2022-10-21T06:18:35.930Z,95.60
2022-10-21T06:21:02.363Z,95.01
2022-10-21T06:23:28.762Z,95.19
2022-10-21T06:26:00.568Z,95.79
2022-10-21T06:28:29.709Z,95.67
2022-10-21T06:30:56.367Z,95.36
2022-10-21T06:33:26.157Z,95.41
2022-10-21T06:35:54.105Z,95.51
2022-10-21T06:38:20.559Z,95.44
2022-10-21T06:40:48.684Z,95.54
2022-10-21T06:43:15.914Z,95.80
2022-10-21T06:45:42.678Z,95.54
2022-10-21T06:48:09.172Z,95.33
2022-10-21T06:50:37.484Z,95.35
2022-10-21T06:53:03.800Z,95.49
2022-10-21T06:55:30.498Z,95.45
2022-10-21T06:57:56.930Z,95.46
2022-10-21T07:00:23.443Z,95.39
2022-10-21T07:02:49.920Z,95.52
2022-10-21T07:05:16.516Z,95.62
2022-10-21T07:07:42.943Z,95.60
2022-10-21T07:10:09.836Z,95.40
2022-10-21T07:12:36.328Z,95.51
2022-10-21T07:15:02.809Z,95.37
2022-10-21T07:17:31.015Z,95.52
2022-10-21T07:19:57.600Z,95.22
2022-10-21T07:22:24.142Z,94.91
2022-10-21T07:24:50.728Z,95.07
2022-10-21T07:27:17.201Z,95.18
2022-10-21T07:29:43.620Z,95.47
2022-10-21T07:32:10.033Z,95.38
2022-10-21T07:34:36.473Z,95.64
2022-10-21T07:37:02.961Z,96.01
2022-10-21T07:39:29.426Z,95.81
2022-10-21T07:41:57.381Z,96.04
2022-10-21T07:44:25.833Z,96.23
2022-10-21T07:46:52.743Z,96.80
2022-10-21T07:49:21.331Z,96.82
2022-10-21T07:51:50.088Z,96.82
2022-10-21T07:54:17.749Z,96.93
2022-10-21T07:56:47.800Z,96.90
2022-10-21T07:59:15.834Z,97.52
2022-10-21T08:01:50.920Z,98.05
2022-10-21T08:04:20.484Z,98.47
2022-10-21T08:06:48.019Z,98.35
2022-10-21T08:09:15.569Z,98.64
2022-10-21T08:11:42.252Z,98.74
2022-10-21T08:14:09.990Z,100.00
2022-10-21T08:16:38.836Z,100.00
2022-10-21T08:19:06.578Z,100.00
2022-10-21T08:21:33.194Z,100.00
2022-10-21T08:24:02.458Z,100.00
2022-10-21T08:26:29.074Z,100.00
2022-10-21T08:28:55.627Z,100.00
2022-10-21T08:31:22.687Z,100.00
2022-10-21T08:33:49.322Z,100.00
2022-10-21T08:36:19.446Z,100.00
2022-10-21T08:38:46.116Z,100.00
2022-10-21T08:41:37.698Z,100.00
2022-10-21T08:44:32.286Z,100.00
2022-10-21T08:47:31.500Z,100.00
2022-10-21T08:50:12.489Z,100.00
2022-10-21T08:53:01.701Z,100.00
2022-10-21T08:55:42.679Z,100.00
2022-10-21T08:58:21.685Z,100.00
2022-10-21T09:00:58.813Z,100.00
2022-10-21T09:04:04.859Z,100.00
2022-10-21T09:06:35.180Z,100.00
2022-10-21T09:09:05.382Z,100.00
2022-10-21T09:11:40.330Z,100.00
2022-10-21T09:14:37.520Z,100.00
2022-10-21T09:17:18.927Z,100.00
2022-10-21T09:19:51.425Z,100.00
2022-10-21T09:22:38.994Z,100.00
2022-10-21T09:25:19.156Z,100.00
2022-10-21T09:27:58.905Z,100.00
2022-10-21T09:30:25.754Z,100.00
2022-10-21T09:32:57.416Z,100.00
2022-10-21T09:35:36.575Z,100.00
2022-10-21T09:38:12.054Z,100.00
2022-10-21T09:40:38.520Z,100.00
2022-10-21T09:43:10.927Z,100.00
2022-10-21T09:45:40.233Z,100.00
2022-10-21T09:48:06.966Z,100.00
2022-10-21T09:50:35.161Z,100.00
2022-10-21T09:53:14.790Z,100.00
2022-10-21T09:55:43.199Z,100.00
2022-10-21T09:58:23.100Z,100.00
2022-10-21T10:00:50.454Z,100.00
2022-10-21T10:03:52.887Z,100.00
2022-10-21T10:06:31.494Z,100.00
2022-10-21T10:09:33.214Z,100.00
2022-10-21T10:12:14.135Z,100.00
2022-10-21T10:14:43.000Z,100.00
2022-10-21T10:17:25.641Z,100.00
2022-10-21T10:20:04.445Z,100.00
2022-10-21T10:23:01.496Z,100.00
2022-10-21T10:25:34.257Z,100.00
2022-10-21T10:28:25.572Z,100.00
2022-10-21T10:30:56.828Z,100.00
2022-10-21T10:33:26.692Z,100.00
2022-10-21T10:35:55.957Z,100.00
2022-10-21T10:38:36.021Z,100.00
2022-10-21T10:41:06.778Z,100.00
2022-10-21T10:43:36.525Z,100.00
2022-10-21T10:46:07.270Z,100.00
2022-10-21T10:48:41.864Z,100.00
2022-10-21T10:51:23.608Z,100.00
2022-10-21T10:54:17.374Z,100.00
2022-10-21T10:56:49.802Z,100.00
2022-10-21T10:59:16.171Z,100.00
2022-10-21T11:01:56.479Z,100.00
2022-10-21T11:04:33.767Z,100.00
2022-10-21T11:07:12.153Z,100.00
2022-10-21T11:09:38.676Z,100.00
2022-10-21T11:12:16.899Z,100.00
2022-10-21T11:14:49.967Z,100.00
2022-10-21T11:17:19.451Z,100.00
2022-10-21T11:20:04.355Z,100.00
2022-10-21T11:22:45.958Z,100.00
2022-10-21T11:25:47.376Z,100.00
2022-10-21T11:28:27.577Z,100.00
2022-10-21T11:30:59.766Z,100.00
2022-10-21T11:33:26.415Z,100.00
2022-10-21T11:36:04.823Z,100.00
2022-10-21T11:38:46.534Z,100.00
2022-10-21T11:41:21.851Z,100.00
2022-10-21T11:44:29.309Z,100.00
2022-10-21T11:47:18.728Z,100.00
2022-10-21T11:49:59.919Z,100.00
2022-10-21T11:52:32.241Z,100.00
2022-10-21T11:55:10.578Z,100.00
2022-10-21T11:58:12.076Z,100.00
2022-10-21T12:01:04.106Z,100.00
2022-10-21T12:04:15.831Z,100.00
2022-10-21T12:07:00.199Z,100.00
2022-10-21T12:09:38.312Z,100.00
2022-10-21T12:12:16.402Z,100.00
2022-10-21T12:14:59.415Z,100.00
2022-10-21T12:17:26.262Z,100.00
2022-10-21T12:20:00.540Z,100.00
2022-10-21T12:22:28.950Z,100.00
2022-10-21T12:25:05.791Z,100.00
2022-10-21T12:27:41.830Z,100.00
2022-10-21T12:30:14.510Z,100.00
2022-10-21T12:33:05.973Z,100.00
2022-10-21T12:35:53.055Z,100.00
2022-10-21T12:38:34.101Z,100.00
2022-10-21T12:41:19.603Z,100.00
2022-10-21T12:44:12.879Z,100.00
2022-10-21T12:46:51.677Z,100.00
2022-10-21T12:49:22.801Z,100.00
2022-10-21T12:52:11.527Z,100.00
2022-10-21T12:54:47.032Z,100.00
2022-10-21T12:57:36.405Z,100.00
2022-10-21T13:00:44.391Z,100.00
2022-10-21T13:03:35.646Z,100.00
2022-10-21T13:06:06.632Z,100.00
2022-10-21T13:08:56.895Z,100.00
2022-10-21T13:11:41.572Z,100.00
2022-10-21T13:14:41.176Z,100.00
2022-10-21T13:17:23.170Z,100.00
2022-10-21T13:19:54.535Z,100.00
2022-10-21T13:22:42.244Z,100.00
2022-10-21T13:25:24.911Z,100.00
2022-10-21T13:27:54.730Z,100.00
2022-10-21T13:30:29.613Z,100.00
2022-10-21T13:33:20.138Z,100.00
2022-10-21T13:36:06.970Z,100.00
2022-10-21T13:38:45.274Z,100.00
2022-10-21T13:41:25.970Z,100.00
2022-10-21T13:43:56.778Z,100.00
2022-10-21T13:46:55.796Z,100.00
2022-10-21T13:49:31.101Z,100.00
2022-10-21T13:51:58.276Z,100.00
2022-10-21T13:54:26.363Z,100.00
2022-10-21T13:56:52.802Z,100.00
2022-10-21T13:59:29.799Z,100.00
2022-10-21T14:01:57.710Z,100.00
2022-10-21T14:04:27.230Z,100.00
2022-10-21T14:06:58.034Z,100.00
2022-10-21T14:09:31.809Z,100.00
2022-10-21T14:12:01.975Z,100.00
2022-10-21T14:14:29.888Z,100.00
2022-10-21T14:17:00.195Z,100.00
2022-10-21T14:19:31.302Z,100.00
2022-10-21T14:22:00.574Z,100.00
2022-10-21T14:24:44.180Z,100.00
2022-10-21T14:27:14.549Z,100.00
2022-10-21T14:29:43.878Z,100.00
2022-10-21T14:32:16.069Z,100.00
2022-10-21T14:35:22.740Z,100.00
2022-10-21T14:37:52.489Z,100.00
2022-10-21T14:40:33.461Z,100.00
2022-10-21T14:43:08.506Z,100.00
2022-10-21T14:45:38.585Z,100.00
2022-10-21T14:48:11.707Z,100.00
2022-10-21T14:50:40.687Z,100.00
2022-10-21T14:53:16.846Z,100.00
2022-10-21T14:55:44.256Z,100.00
2022-10-21T15:00:56.264Z,100.00
2022-10-21T15:03:44.436Z,100.00
2022-10-21T15:06:17.592Z,100.00
2022-10-21T15:08:57.256Z,100.00
2022-10-21T15:11:39.667Z,100.00
2022-10-21T15:14:15.152Z,100.00
2022-10-21T15:16:54.069Z,100.00
2022-10-21T15:19:25.656Z,100.00
2022-10-21T15:22:01.325Z,100.00
2022-10-21T15:24:46.238Z,100.00
2022-10-21T15:27:26.501Z,100.00
2022-10-21T15:29:53.229Z,100.00
2022-10-21T15:32:24.500Z,100.00
2022-10-21T15:34:54.976Z,100.00
2022-10-21T15:37:21.439Z,100.00
2022-10-21T15:39:48.547Z,100.00
2022-10-21T15:42:17.980Z,100.00
2022-10-21T15:44:49.020Z,100.00
2022-10-21T15:47:15.618Z,100.00
2022-10-21T15:49:43.196Z,100.00
2022-10-21T15:52:10.275Z,100.00
2022-10-21T15:54:36.677Z,100.00
2022-10-21T15:57:14.319Z,100.00
2022-10-21T15:59:40.790Z,100.00
2022-10-21T16:02:14.017Z,100.00
2022-10-21T16:04:43.316Z,100.00
2022-10-21T16:07:22.218Z,100.00
2022-10-21T16:09:48.710Z,100.00
2022-10-21T16:12:16.903Z,100.00
2022-10-21T16:14:43.355Z,100.00
2022-10-21T16:17:11.585Z,100.00
2022-10-21T16:19:38.088Z,100.00
2022-10-21T16:22:14.689Z,100.00
2022-10-21T16:24:41.116Z,100.00
2022-10-21T16:27:12.806Z,100.00
2022-10-21T16:29:39.276Z,100.00
2022-10-21T16:32:06.420Z,100.00
2022-10-21T16:34:32.940Z,100.00
2022-10-21T16:37:01.353Z,100.00
2022-10-21T16:39:28.081Z,100.00
2022-10-21T16:41:54.668Z,100.00
2022-10-21T16:44:21.179Z,100.00
2022-10-21T16:46:52.153Z,100.00
2022-10-21T16:49:22.535Z,100.00
2022-10-21T16:51:49.207Z,100.00
2022-10-21T16:54:15.927Z,100.00
2022-10-21T16:56:42.394Z,100.00
2022-10-21T16:59:08.965Z,100.00
2022-10-21T17:01:35.503Z,100.00
2022-10-21T17:04:02.086Z,100.00
2022-10-21T17:06:28.650Z,100.00
2022-10-21T17:08:55.828Z,100.00
2022-10-21T17:11:34.457Z,100.00
2022-10-21T17:14:02.035Z,100.00
2022-10-21T17:16:28.485Z,100.00
2022-10-21T17:18:55.053Z,100.00
2022-10-21T17:21:24.491Z,100.00
2022-10-21T17:23:52.069Z,100.00
2022-10-21T17:26:19.565Z,100.00
2022-10-21T17:28:46.812Z,100.00
2022-10-21T17:31:21.819Z,100.00
2022-10-21T17:33:49.024Z,100.00
2022-10-21T17:36:16.795Z,100.00
2022-10-21T17:38:43.422Z,100.00
2022-10-21T17:41:11.399Z,100.00
2022-10-21T17:43:37.821Z,100.00
2022-10-21T17:46:04.997Z,100.00
2022-10-21T17:48:32.095Z,100.00
2022-10-21T17:51:01.473Z,100.00
2022-10-21T17:53:29.484Z,100.00
2022-10-21T17:56:00.508Z,100.00
2022-10-21T17:58:28.303Z,100.00
2022-10-21T18:00:58.236Z,100.00
2022-10-21T18:03:28.760Z,100.00
2022-10-21T18:05:56.167Z,100.00
2022-10-21T18:08:23.859Z,100.00
2022-10-21T18:10:55.357Z,100.00
2022-10-21T18:13:23.027Z,100.00
2022-10-21T18:15:50.388Z,100.00
2022-10-21T18:18:18.284Z,100.00
2022-10-21T18:20:44.862Z,100.00
2022-10-21T18:23:12.030Z,100.00
2022-10-21T18:25:39.941Z,100.00
2022-10-21T18:28:07.303Z,100.00
2022-10-21T18:30:43.270Z,100.00
2022-10-21T18:33:10.484Z,100.00
2022-10-21T18:35:37.470Z,100.00
2022-10-21T18:38:04.223Z,100.00
2022-10-21T18:40:30.795Z,100.00
2022-10-21T18:42:57.255Z,100.00
2022-10-21T18:45:23.865Z,100.00
2022-10-21T18:47:51.577Z,100.00
2022-10-21T18:50:18.128Z,100.00
2022-10-21T18:52:44.631Z,100.00
2022-10-21T18:55:11.041Z,100.00
2022-10-21T18:57:38.081Z,100.00
2022-10-21T19:00:06.111Z,100.00
2022-10-21T19:02:32.593Z,100.00
2022-10-21T19:05:01.983Z,100.00
2022-10-21T19:07:29.252Z,100.00
2022-10-21T19:09:55.967Z,100.00
2022-10-21T19:12:23.655Z,100.00
2022-10-21T19:14:50.759Z,100.00
2022-10-21T19:17:17.343Z,100.00
2022-10-21T19:19:43.876Z,100.00
2022-10-21T19:22:10.384Z,100.00
2022-10-21T19:24:36.835Z,100.00
2022-10-21T19:27:03.726Z,100.00
2022-10-21T19:29:31.268Z,100.00
2022-10-21T19:31:57.663Z,100.00
2022-10-21T19:34:27.910Z,100.00
2022-10-21T19:36:54.794Z,100.00
2022-10-21T19:39:21.622Z,100.00
2022-10-21T19:41:48.397Z,100.00
2022-10-21T19:44:14.851Z,100.00
2022-10-21T19:46:41.548Z,100.00
2022-10-21T19:49:09.529Z,99.93
2022-10-21T19:51:37.165Z,99.51
2022-10-21T19:54:05.161Z,98.67
2022-10-21T19:56:34.406Z,98.21
2022-10-21T19:59:04.831Z,97.81
2022-10-21T20:01:32.741Z,97.07
2022-10-21T20:04:01.084Z,96.41
2022-10-21T20:06:29.916Z,96.03
2022-10-21T20:08:58.338Z,95.71
2022-10-21T20:11:25.573Z,95.35
2022-10-21T20:13:52.366Z,95.12
2022-10-21T20:16:23.908Z,94.86
2022-10-21T20:18:51.317Z,94.69
2022-10-21T20:21:18.335Z,93.97
2022-10-21T20:23:45.262Z,93.68
2022-10-21T20:26:12.272Z,93.32
2022-10-21T20:28:38.817Z,92.98
2022-10-21T20:31:11.267Z,92.67
2022-10-21T20:33:41.410Z,92.40
2022-10-21T20:36:15.847Z,92.14
2022-10-21T20:38:42.762Z,92.04
2022-10-21T20:41:13.055Z,91.77
2022-10-21T20:43:40.795Z,91.60
2022-10-21T20:46:12.550Z,91.30
2022-10-21T20:48:48.153Z,91.08
2022-10-21T20:51:17.915Z,90.74
2022-10-21T20:53:50.086Z,90.75
2022-10-21T20:56:16.647Z,90.82
2022-10-21T20:58:43.192Z,90.54
2022-10-21T21:01:13.450Z,90.63
2022-10-21T21:03:42.535Z,90.50
2022-10-21T21:06:10.384Z,90.55
2022-10-21T21:08:44.559Z,90.33
2022-10-21T21:11:16.311Z,90.30
2022-10-21T21:13:44.579Z,90.20
2022-10-21T21:16:15.322Z,90.07
2022-10-21T21:18:43.922Z,90.01
2022-10-21T21:21:14.993Z,89.90
2022-10-21T21:23:42.767Z,89.86
2022-10-21T21:26:10.419Z,89.73
2022-10-21T21:28:37.779Z,89.69
2022-10-21T21:31:05.996Z,89.70
2022-10-21T21:33:33.244Z,89.68
2022-10-21T21:36:00.466Z,89.61
2022-10-21T21:38:28.255Z,89.63
2022-10-21T21:40:54.947Z,89.66
2022-10-21T21:43:22.074Z,89.71
2022-10-21T21:45:48.558Z,89.72
2022-10-21T21:50:47.567Z,89.54
2022-10-21T21:53:16.467Z,89.48
2022-10-21T21:55:43.164Z,89.44
2022-10-21T21:58:10.003Z,89.48
2022-10-21T22:00:36.929Z,89.56
2022-10-21T22:03:04.501Z,89.73
2022-10-21T22:05:33.788Z,89.67
2022-10-21T22:08:01.335Z,89.65
2022-10-21T22:10:28.504Z,89.67
2022-10-21T22:12:56.511Z,89.78
2022-10-21T22:15:43.208Z,89.94
2022-10-21T22:18:10.842Z,89.99
2022-10-21T22:20:39.469Z,89.97
2022-10-21T22:23:06.176Z,90.21
2022-10-21T22:25:32.655Z,90.16
2022-10-21T22:27:59.077Z,90.34
2022-10-21T22:30:25.480Z,90.31
2022-10-21T22:32:51.888Z,90.30
2022-10-21T22:35:18.406Z,90.34
2022-10-21T22:37:44.855Z,90.44
2022-10-21T22:40:11.826Z,90.52
2022-10-21T22:42:38.297Z,90.56
2022-10-21T22:45:05.335Z,90.59
2022-10-21T22:47:31.734Z,90.53
2022-10-21T22:49:58.137Z,90.50
2022-10-21T22:52:24.560Z,90.49
2022-10-21T22:54:50.953Z,90.47
2022-10-21T22:57:17.447Z,90.52
2022-10-21T22:59:44.322Z,90.50
2022-10-21T23:02:11.902Z,90.41
2022-10-21T23:04:38.316Z,90.41
2022-10-21T23:07:04.872Z,90.29
2022-10-21T23:09:31.732Z,90.16
2022-10-21T23:11:58.244Z,90.08
2022-10-21T23:14:24.751Z,90.06
2022-10-21T23:16:52.360Z,90.00
2022-10-21T23:19:18.783Z,89.98
2022-10-21T23:21:45.256Z,89.90
2022-10-21T23:24:12.264Z,89.83
2022-10-21T23:26:38.740Z,89.88
2022-10-21T23:29:05.137Z,89.85
2022-10-21T23:31:31.771Z,89.86
2022-10-21T23:33:58.198Z,89.89
2022-10-21T23:36:24.861Z,89.81
2022-10-21T23:38:54.444Z,89.86
2022-10-21T23:41:22.926Z,89.91
2022-10-21T23:43:49.380Z,89.93
2022-10-21T23:46:15.914Z,89.88
2022-10-21T23:48:42.417Z,89.89
2022-10-21T23:51:08.890Z,89.85
2022-10-21T23:53:35.423Z,89.80
2022-10-21T23:56:01.969Z,89.79
2022-10-21T23:58:28.412Z,89.67
